TimeEST,TemperatureF,Dew PointF,Humidity,Sea Level PressureIn,VisibilityMPH,Wind Direction,Wind SpeedMPH,Gust SpeedMPH,PrecipitationIn,Events,Conditions,WindDirDegrees,DateUTC
12:53 AM,66.9,54.0,63,30.06,10.0,SSE,6.9,-,N/A,,Clear,150,2012-12-20 05:53:00
1:53 AM,66.0,53.1,63,30.05,10.0,SSE,8.1,-,N/A,,Clear,160,2012-12-20 06:53:00
2:53 AM,66.9,53.1,61,30.05,10.0,South,9.2,-,N/A,,Clear,170,2012-12-20 07:53:00
3:53 AM,66.9,59.0,76,30.04,10.0,South,11.5,-,N/A,,Clear,170,2012-12-20 08:53:00
4:53 AM,66.0,61.0,84,30.03,10.0,South,10.4,-,N/A,,Clear,170,2012-12-20 09:53:00
5:53 AM,66.0,61.0,84,30.03,10.0,South,10.4,-,N/A,,Clear,180,2012-12-20 10:53:00
6:53 AM,64.9,62.1,90,30.04,10.0,South,11.5,-,N/A,,Clear,180,2012-12-20 11:53:00
7:53 AM,66.9,63.0,87,30.06,9.0,South,9.2,-,N/A,,Clear,180,2012-12-20 12:53:00
8:53 AM,68.0,64.0,87,30.07,10.0,South,9.2,-,N/A,,Clear,180,2012-12-20 13:53:00
9:53 AM,72.0,64.0,76,30.06,10.0,South,12.7,-,N/A,,Clear,190,2012-12-20 14:53:00
10:53 AM,75.9,66.0,71,30.04,10.0,South,9.2,-,N/A,,Clear,180,2012-12-20 15:53:00
11:53 AM,78.1,66.0,66,30.02,10.0,South,11.5,-,N/A,,Clear,190,2012-12-20 16:53:00
12:53 PM,80.1,66.9,64,29.97,10.0,SSW,18.4,-,N/A,,Clear,200,2012-12-20 17:53:00
1:53 PM,80.1,66.9,64,29.96,10.0,SSW,15.0,24.2,N/A,,Clear,210,2012-12-20 18:53:00
2:53 PM,79.0,66.9,66,29.94,10.0,SSW,19.6,26.5,N/A,,Clear,200,2012-12-20 19:53:00
3:53 PM,78.1,66.9,68,29.95,10.0,SSW,13.8,24.2,N/A,,Clear,210,2012-12-20 20:53:00
4:53 PM,75.9,66.9,74,29.95,10.0,SSW,17.3,-,N/A,,Scattered Clouds,210,2012-12-20 21:53:00
5:53 PM,75.0,66.9,76,29.97,10.0,SW,11.5,21.9,N/A,,Partly Cloudy,220,2012-12-20 22:53:00
6:53 PM,73.9,68.0,82,29.96,10.0,SSW,13.8,-,N/A,,Overcast,200,2012-12-20 23:53:00
7:53 PM,73.9,69.1,85,29.96,10.0,SSW,15.0,-,0.00,,Mostly Cloudy,210,2012-12-21 00:53:00
8:53 PM,73.9,70.0,87,29.96,10.0,SW,13.8,-,N/A,,Overcast,220,2012-12-21 01:53:00
9:53 PM,73.9,71.1,91,29.95,4.0,SW,15.0,24.2,0.02,Rain,Light Rain,220,2012-12-21 02:53:00
10:21 PM,73.9,71.1,91,29.94,10.0,SW,16.1,21.9,0.00,Thunderstorm,Overcast,220,2012-12-21 03:21:00
10:29 PM,73.9,71.1,91,29.97,10.0,WNW,16.1,24.2,0.00,Rain-Thunderstorm,Light Thunderstorms and Rain,300,2012-12-21 03:29:00
10:31 PM,73.9,71.1,91,29.96,1.5,NNW,24.2,40.3,0.15,Rain-Thunderstorm,Light Thunderstorms and Rain,330,2012-12-21 03:31:00
10:33 PM,73.0,70.0,90,29.96,0.8,NW,23.0,40.3,0.30,Rain-Thunderstorm,Thunderstorms and Rain,310,2012-12-21 03:33:00
10:43 PM,71.1,68.0,90,29.96,1.0,West,15.0,29.9,0.45,Rain-Thunderstorm,Heavy Rain,280,2012-12-21 03:43:00
10:51 PM,71.6,68.0,88,29.97,1.5,West,16.1,26.5,0.53,Rain-Thunderstorm,Heavy Thunderstorms and Rain,260,2012-12-21 03:51:00
10:53 PM,71.1,68.0,90,29.97,1.5,West,11.5,26.5,0.54,Rain-Thunderstorm,Heavy Thunderstorms and Rain,260,2012-12-21 03:53:00
11:02 PM,71.1,68.0,90,29.97,2.0,West,11.5,-,0.05,Rain,Rain,260,2012-12-21 04:02:00
11:09 PM,71.1,69.1,93,29.98,3.0,West,10.4,-,0.08,Rain,Rain,260,2012-12-21 04:09:00
11:53 PM,72.0,68.0,87,29.97,9.0,West,11.5,-,0.08,Rain,Light Rain,280,2012-12-21 04:53:00